Terminal Aerodrome Forecast
Issued by NWS

Home | Current Version | Previous Version | Text Only | Print | Product List | Glossary On
Versions: 1 2 3 4 5 6 7 8 9 10 11 12 13 14 15 16 17 18 19 20
000
FTUS42 KMLB 232202 AAB
TAFSUA
TAF AMD
KSUA 232202Z 2322/2418 16010KT P6SM VCSH SCT025 BKN040 OVC100
      TEMPO 2322/2324 5SM -SHRA BKN030 BKN040
     FM240000 17007KT P6SM VCSH SCT025 BKN035 OVC060
      TEMPO 2400/2403 3SM SHRA BKN020
     FM240900 24003KT P6SM FEW015 SCT060 BKN250
     FM241400 24008KT P6SM BKN025=

USA.gov is the U.S. government's official web portal to all federal, state and local government web resources and services.